sensor_id;sensor_type;location;lat;lon;timestamp;P1;durP1;ratioP1;P2;durP2;ratioP2
34737;SDS011;39910;47.154;27.614;2022-07-29T00:01:50;6.80;;;6.50;;
34737;SDS011;39910;47.154;27.614;2022-07-29T00:04:17;6.65;;;6.35;;
34737;SDS011;39910;47.154;27.614;2022-07-29T00:06:43;6.90;;;6.60;;
34737;SDS011;39910;47.154;27.614;2022-07-29T00:09:09;7.05;;;6.75;;
34737;SDS011;39910;47.154;27.614;2022-07-29T00:11:34;7.10;;;6.80;;
34737;SDS011;39910;47.154;27.614;2022-07-29T00:14:00;6.63;;;6.32;;
34737;SDS011;39910;47.154;27.614;2022-07-29T00:16:25;7.05;;;6.75;;
34737;SDS011;39910;47.154;27.614;2022-07-29T00:18:51;6.60;;;6.30;;
34737;SDS011;39910;47.154;27.614;2022-07-29T00:21:16;6.72;;;6.43;;
34737;SDS011;39910;47.154;27.614;2022-07-29T00:23:42;6.70;;;6.40;;
34737;SDS011;39910;47.154;27.614;2022-07-29T00:26:07;6.88;;;6.57;;
34737;SDS011;39910;47.154;27.614;2022-07-29T00:28:33;6.80;;;6.50;;
34737;SDS011;39910;47.154;27.614;2022-07-29T00:30:58;6.60;;;6.30;;
34737;SDS011;39910;47.154;27.614;2022-07-29T00:33:24;6.70;;;6.40;;
34737;SDS011;39910;47.154;27.614;2022-07-29T00:35:49;6.90;;;6.60;;
34737;SDS011;39910;47.154;27.614;2022-07-29T00:38:16;6.90;;;6.60;;
34737;SDS011;39910;47.154;27.614;2022-07-29T00:40:43;6.80;;;6.50;;
34737;SDS011;39910;47.154;27.614;2022-07-29T00:43:09;6.78;;;6.47;;
34737;SDS011;39910;47.154;27.614;2022-07-29T00:45:35;6.78;;;6.47;;
34737;SDS011;39910;47.154;27.614;2022-07-29T00:48:01;6.88;;;6.57;;
34737;SDS011;39910;47.154;27.614;2022-07-29T00:50:28;6.65;;;6.35;;
34737;SDS011;39910;47.154;27.614;2022-07-29T00:52:54;6.70;;;6.40;;
34737;SDS011;39910;47.154;27.614;2022-07-29T00:55:19;6.85;;;6.55;;
34737;SDS011;39910;47.154;27.614;2022-07-29T00:57:45;6.63;;;6.32;;
34737;SDS011;39910;47.154;27.614;2022-07-29T01:00:12;6.53;;;6.22;;
34737;SDS011;39910;47.154;27.614;2022-07-29T01:02:48;6.88;;;6.57;;
34737;SDS011;39910;47.154;27.614;2022-07-29T01:05:15;6.90;;;6.60;;
34737;SDS011;39910;47.154;27.614;2022-07-29T01:07:42;6.70;;;6.40;;
34737;SDS011;39910;47.154;27.614;2022-07-29T01:10:11;6.80;;;6.50;;
34737;SDS011;39910;47.154;27.614;2022-07-29T01:12:38;6.60;;;6.30;;
34737;SDS011;39910;47.154;27.614;2022-07-29T01:15:05;6.72;;;6.43;;
34737;SDS011;39910;47.154;27.614;2022-07-29T01:28:46;6.68;;;6.38;;
34737;SDS011;39910;47.154;27.614;2022-07-29T01:31:00;7.00;;;6.70;;
34737;SDS011;39910;47.154;27.614;2022-07-29T01:33:29;6.90;;;6.60;;
34737;SDS011;39910;47.154;27.614;2022-07-29T01:36:59;6.70;;;6.40;;
34737;SDS011;39910;47.154;27.614;2022-07-29T01:39:30;6.68;;;6.38;;
34737;SDS011;39910;47.154;27.614;2022-07-29T01:44:33;6.60;;;6.30;;
34737;SDS011;39910;47.154;27.614;2022-07-29T01:47:05;6.60;;;6.30;;
34737;SDS011;39910;47.154;27.614;2022-07-29T01:49:36;6.88;;;6.50;;
34737;SDS011;39910;47.154;27.614;2022-07-29T01:52:11;6.65;;;6.35;;
34737;SDS011;39910;47.154;27.614;2022-07-29T01:54:45;6.68;;;6.38;;
34737;SDS011;39910;47.154;27.614;2022-07-29T01:57:17;6.53;;;6.22;;
34737;SDS011;39910;47.154;27.614;2022-07-29T01:59:46;6.68;;;6.38;;
34737;SDS011;39910;47.154;27.614;2022-07-29T02:02:16;6.75;;;6.45;;
34737;SDS011;39910;47.154;27.614;2022-07-29T02:04:44;6.78;;;6.47;;
34737;SDS011;39910;47.154;27.614;2022-07-29T02:07:13;6.70;;;6.40;;
34737;SDS011;39910;47.154;27.614;2022-07-29T02:09:43;6.50;;;6.20;;
34737;SDS011;39910;47.154;27.614;2022-07-29T02:12:10;6.70;;;6.40;;
34737;SDS011;39910;47.154;27.614;2022-07-29T02:14:41;6.70;;;6.40;;
34737;SDS011;39910;47.154;27.614;2022-07-29T02:17:10;6.85;;;6.55;;
34737;SDS011;39910;47.154;27.614;2022-07-29T02:19:38;6.60;;;6.30;;
34737;SDS011;39910;47.154;27.614;2022-07-29T02:22:06;6.78;;;6.47;;
34737;SDS011;39910;47.154;27.614;2022-07-29T02:24:32;6.53;;;6.22;;
34737;SDS011;39910;47.154;27.614;2022-07-29T02:27:01;6.80;;;6.50;;
34737;SDS011;39910;47.154;27.614;2022-07-29T02:29:28;6.88;;;6.57;;
34737;SDS011;39910;47.154;27.614;2022-07-29T02:31:56;6.85;;;6.55;;
34737;SDS011;39910;47.154;27.614;2022-07-29T02:34:23;6.72;;;6.43;;
34737;SDS011;39910;47.154;27.614;2022-07-29T02:36:50;6.90;;;6.60;;
34737;SDS011;39910;47.154;27.614;2022-07-29T02:39:17;6.68;;;6.38;;
34737;SDS011;39910;47.154;27.614;2022-07-29T02:41:48;6.63;;;6.32;;
34737;SDS011;39910;47.154;27.614;2022-07-29T02:44:17;6.80;;;6.50;;
34737;SDS011;39910;47.154;27.614;2022-07-29T02:46:49;6.60;;;6.30;;
34737;SDS011;39910;47.154;27.614;2022-07-29T02:51:51;6.70;;;6.40;;
34737;SDS011;39910;47.154;27.614;2022-07-29T02:54:22;6.70;;;6.40;;
34737;SDS011;39910;47.154;27.614;2022-07-29T02:57:11;6.80;;;6.50;;
34737;SDS011;39910;47.154;27.614;2022-07-29T02:59:42;6.72;;;6.43;;
34737;SDS011;39910;47.154;27.614;2022-07-29T03:02:10;6.57;;;6.28;;
34737;SDS011;39910;47.154;27.614;2022-07-29T03:04:38;6.78;;;6.47;;
34737;SDS011;39910;47.154;27.614;2022-07-29T03:07:06;6.80;;;6.50;;
34737;SDS011;39910;47.154;27.614;2022-07-29T03:09:32;6.90;;;6.60;;
34737;SDS011;39910;47.154;27.614;2022-07-29T03:11:58;6.70;;;6.40;;
34737;SDS011;39910;47.154;27.614;2022-07-29T03:14:24;6.70;;;6.40;;
34737;SDS011;39910;47.154;27.614;2022-07-29T03:16:51;6.85;;;6.55;;
34737;SDS011;39910;47.154;27.614;2022-07-29T03:19:18;6.78;;;6.47;;
34737;SDS011;39910;47.154;27.614;2022-07-29T03:21:45;6.78;;;6.47;;
34737;SDS011;39910;47.154;27.614;2022-07-29T03:24:23;6.97;;;6.68;;
34737;SDS011;39910;47.154;27.614;2022-07-29T03:26:54;7.00;;;6.70;;
34737;SDS011;39910;47.154;27.614;2022-07-29T03:29:20;6.72;;;6.43;;
34737;SDS011;39910;47.154;27.614;2022-07-29T03:31:45;7.10;;;6.80;;
34737;SDS011;39910;47.154;27.614;2022-07-29T03:34:11;6.90;;;6.60;;
34737;SDS011;39910;47.154;27.614;2022-07-29T03:36:36;6.85;;;6.55;;
34737;SDS011;39910;47.154;27.614;2022-07-29T03:39:02;6.80;;;6.50;;
34737;SDS011;39910;47.154;27.614;2022-07-29T03:41:29;7.10;;;6.80;;
34737;SDS011;39910;47.154;27.614;2022-07-29T03:43:56;7.10;;;6.80;;
34737;SDS011;39910;47.154;27.614;2022-07-29T03:46:23;7.20;;;6.90;;
34737;SDS011;39910;47.154;27.614;2022-07-29T03:48:52;7.10;;;6.80;;
34737;SDS011;39910;47.154;27.614;2022-07-29T03:51:22;6.85;;;6.55;;
34737;SDS011;39910;47.154;27.614;2022-07-29T03:53:48;7.10;;;6.80;;
34737;SDS011;39910;47.154;27.614;2022-07-29T03:56:15;7.05;;;6.75;;
34737;SDS011;39910;47.154;27.614;2022-07-29T03:58:41;7.07;;;6.78;;
34737;SDS011;39910;47.154;27.614;2022-07-29T04:01:09;7.00;;;6.70;;
34737;SDS011;39910;47.154;27.614;2022-07-29T04:03:35;6.95;;;6.65;;
34737;SDS011;39910;47.154;27.614;2022-07-29T04:06:03;7.10;;;6.80;;
34737;SDS011;39910;47.154;27.614;2022-07-29T04:08:33;6.80;;;6.50;;
34737;SDS011;39910;47.154;27.614;2022-07-29T04:11:00;7.03;;;6.72;;
34737;SDS011;39910;47.154;27.614;2022-07-29T04:13:26;6.90;;;6.60;;
34737;SDS011;39910;47.154;27.614;2022-07-29T04:15:51;6.85;;;6.55;;
34737;SDS011;39910;47.154;27.614;2022-07-29T04:18:17;7.05;;;6.75;;
34737;SDS011;39910;47.154;27.614;2022-07-29T04:20:42;7.00;;;6.70;;
34737;SDS011;39910;47.154;27.614;2022-07-29T04:23:08;7.10;;;6.80;;
34737;SDS011;39910;47.154;27.614;2022-07-29T04:25:36;7.03;;;6.72;;
34737;SDS011;39910;47.154;27.614;2022-07-29T04:28:02;6.97;;;6.68;;
34737;SDS011;39910;47.154;27.614;2022-07-29T04:30:31;6.95;;;6.65;;
34737;SDS011;39910;47.154;27.614;2022-07-29T04:32:58;6.90;;;6.60;;
34737;SDS011;39910;47.154;27.614;2022-07-29T04:35:25;6.88;;;6.57;;
34737;SDS011;39910;47.154;27.614;2022-07-29T04:37:51;7.15;;;6.85;;
34737;SDS011;39910;47.154;27.614;2022-07-29T04:40:17;6.90;;;6.60;;
34737;SDS011;39910;47.154;27.614;2022-07-29T04:42:43;7.00;;;6.70;;
34737;SDS011;39910;47.154;27.614;2022-07-29T04:45:08;7.13;;;6.82;;
34737;SDS011;39910;47.154;27.614;2022-07-29T04:47:34;7.03;;;6.72;;
34737;SDS011;39910;47.154;27.614;2022-07-29T04:50:00;7.05;;;6.75;;
34737;SDS011;39910;47.154;27.614;2022-07-29T04:52:26;7.25;;;6.95;;
34737;SDS011;39910;47.154;27.614;2022-07-29T04:54:51;7.13;;;6.82;;
34737;SDS011;39910;47.154;27.614;2022-07-29T04:57:17;6.95;;;6.65;;
34737;SDS011;39910;47.154;27.614;2022-07-29T04:59:42;7.10;;;6.80;;
34737;SDS011;39910;47.154;27.614;2022-07-29T05:02:08;7.10;;;6.80;;
34737;SDS011;39910;47.154;27.614;2022-07-29T05:04:35;7.07;;;6.78;;
34737;SDS011;39910;47.154;27.614;2022-07-29T05:07:00;7.15;;;6.85;;
34737;SDS011;39910;47.154;27.614;2022-07-29T05:09:26;7.65;;;7.35;;
34737;SDS011;39910;47.154;27.614;2022-07-29T05:11:51;7.32;;;7.03;;
34737;SDS011;39910;47.154;27.614;2022-07-29T05:14:17;7.32;;;7.03;;
34737;SDS011;39910;47.154;27.614;2022-07-29T05:16:42;7.20;;;6.90;;
34737;SDS011;39910;47.154;27.614;2022-07-29T05:19:08;6.75;;;6.45;;
34737;SDS011;39910;47.154;27.614;2022-07-29T05:21:34;7.07;;;6.78;;
34737;SDS011;39910;47.154;27.614;2022-07-29T05:23:59;7.10;;;6.80;;
34737;SDS011;39910;47.154;27.614;2022-07-29T05:26:25;7.13;;;6.82;;
34737;SDS011;39910;47.154;27.614;2022-07-29T05:28:50;6.90;;;6.60;;
34737;SDS011;39910;47.154;27.614;2022-07-29T05:31:16;6.88;;;6.57;;
34737;SDS011;39910;47.154;27.614;2022-07-29T05:33:41;7.13;;;6.82;;
34737;SDS011;39910;47.154;27.614;2022-07-29T05:36:07;7.63;;;7.32;;
34737;SDS011;39910;47.154;27.614;2022-07-29T05:38:33;7.35;;;7.05;;
34737;SDS011;39910;47.154;27.614;2022-07-29T05:41:01;7.18;;;6.88;;
34737;SDS011;39910;47.154;27.614;2022-07-29T05:43:27;7.00;;;6.70;;
34737;SDS011;39910;47.154;27.614;2022-07-29T05:45:53;7.07;;;6.78;;
34737;SDS011;39910;47.154;27.614;2022-07-29T05:48:19;7.30;;;7.00;;
34737;SDS011;39910;47.154;27.614;2022-07-29T05:50:44;7.05;;;6.75;;
34737;SDS011;39910;47.154;27.614;2022-07-29T05:53:10;7.40;;;7.10;;
34737;SDS011;39910;47.154;27.614;2022-07-29T05:55:36;7.20;;;6.90;;
34737;SDS011;39910;47.154;27.614;2022-07-29T05:58:01;7.30;;;7.00;;
34737;SDS011;39910;47.154;27.614;2022-07-29T06:00:27;7.10;;;6.80;;
34737;SDS011;39910;47.154;27.614;2022-07-29T06:02:53;7.18;;;6.88;;
34737;SDS011;39910;47.154;27.614;2022-07-29T06:05:18;7.25;;;6.95;;
34737;SDS011;39910;47.154;27.614;2022-07-29T06:07:44;7.07;;;6.78;;
34737;SDS011;39910;47.154;27.614;2022-07-29T06:10:09;7.05;;;6.75;;
34737;SDS011;39910;47.154;27.614;2022-07-29T06:12:35;7.20;;;6.90;;
34737;SDS011;39910;47.154;27.614;2022-07-29T06:15:01;6.95;;;6.65;;
34737;SDS011;39910;47.154;27.614;2022-07-29T06:17:27;7.00;;;6.70;;
34737;SDS011;39910;47.154;27.614;2022-07-29T06:19:52;6.80;;;6.50;;
34737;SDS011;39910;47.154;27.614;2022-07-29T06:22:18;6.90;;;6.60;;
34737;SDS011;39910;47.154;27.614;2022-07-29T06:24:43;7.30;;;7.00;;
34737;SDS011;39910;47.154;27.614;2022-07-29T06:27:12;7.85;;;7.55;;
34737;SDS011;39910;47.154;27.614;2022-07-29T06:29:38;7.13;;;6.82;;
34737;SDS011;39910;47.154;27.614;2022-07-29T06:32:03;7.10;;;6.80;;
34737;SDS011;39910;47.154;27.614;2022-07-29T06:34:29;7.00;;;6.70;;
34737;SDS011;39910;47.154;27.614;2022-07-29T06:36:55;7.30;;;7.00;;
34737;SDS011;39910;47.154;27.614;2022-07-29T06:39:20;7.45;;;7.15;;
34737;SDS011;39910;47.154;27.614;2022-07-29T06:41:46;7.78;;;7.47;;
34737;SDS011;39910;47.154;27.614;2022-07-29T06:44:14;7.60;;;7.30;;
34737;SDS011;39910;47.154;27.614;2022-07-29T06:46:39;8.00;;;7.70;;
34737;SDS011;39910;47.154;27.614;2022-07-29T06:49:05;7.35;;;7.05;;
34737;SDS011;39910;47.154;27.614;2022-07-29T06:51:30;7.43;;;7.13;;
34737;SDS011;39910;47.154;27.614;2022-07-29T06:53:56;7.68;;;7.38;;
34737;SDS011;39910;47.154;27.614;2022-07-29T06:56:22;6.97;;;6.68;;
34737;SDS011;39910;47.154;27.614;2022-07-29T06:58:48;7.30;;;7.00;;
34737;SDS011;39910;47.154;27.614;2022-07-29T07:01:13;7.63;;;7.32;;
34737;SDS011;39910;47.154;27.614;2022-07-29T07:03:39;7.30;;;7.00;;
34737;SDS011;39910;47.154;27.614;2022-07-29T07:06:04;7.45;;;7.15;;
34737;SDS011;39910;47.154;27.614;2022-07-29T07:08:30;7.55;;;7.25;;
34737;SDS011;39910;47.154;27.614;2022-07-29T07:10:55;7.43;;;7.13;;
34737;SDS011;39910;47.154;27.614;2022-07-29T07:13:22;7.32;;;7.03;;
34737;SDS011;39910;47.154;27.614;2022-07-29T07:15:48;7.15;;;6.85;;
34737;SDS011;39910;47.154;27.614;2022-07-29T07:18:14;7.40;;;7.10;;
34737;SDS011;39910;47.154;27.614;2022-07-29T07:20:40;7.18;;;6.88;;
34737;SDS011;39910;47.154;27.614;2022-07-29T07:23:06;7.47;;;7.18;;
34737;SDS011;39910;47.154;27.614;2022-07-29T07:25:32;7.35;;;7.05;;
34737;SDS011;39910;47.154;27.614;2022-07-29T07:27:57;7.32;;;7.03;;
34737;SDS011;39910;47.154;27.614;2022-07-29T07:30:23;7.13;;;6.82;;
34737;SDS011;39910;47.154;27.614;2022-07-29T07:32:48;7.57;;;7.28;;
34737;SDS011;39910;47.154;27.614;2022-07-29T07:35:14;8.02;;;7.72;;
34737;SDS011;39910;47.154;27.614;2022-07-29T07:37:40;7.38;;;7.07;;
34737;SDS011;39910;47.154;27.614;2022-07-29T07:40:06;7.50;;;7.20;;
34737;SDS011;39910;47.154;27.614;2022-07-29T07:42:33;7.28;;;6.97;;
34737;SDS011;39910;47.154;27.614;2022-07-29T07:44:59;7.07;;;6.78;;
34737;SDS011;39910;47.154;27.614;2022-07-29T07:47:24;7.10;;;6.80;;
34737;SDS011;39910;47.154;27.614;2022-07-29T07:49:50;7.50;;;7.20;;
34737;SDS011;39910;47.154;27.614;2022-07-29T07:52:16;7.20;;;6.90;;
34737;SDS011;39910;47.154;27.614;2022-07-29T07:54:43;7.30;;;7.00;;
34737;SDS011;39910;47.154;27.614;2022-07-29T07:57:10;6.80;;;6.50;;
34737;SDS011;39910;47.154;27.614;2022-07-29T07:59:36;7.28;;;6.97;;
34737;SDS011;39910;47.154;27.614;2022-07-29T08:02:02;7.20;;;6.90;;
34737;SDS011;39910;47.154;27.614;2022-07-29T08:04:27;7.40;;;7.10;;
34737;SDS011;39910;47.154;27.614;2022-07-29T08:06:53;7.20;;;6.90;;
34737;SDS011;39910;47.154;27.614;2022-07-29T08:09:22;7.38;;;7.07;;
34737;SDS011;39910;47.154;27.614;2022-07-29T08:11:48;7.80;;;7.50;;
34737;SDS011;39910;47.154;27.614;2022-07-29T08:14:14;7.20;;;6.90;;
34737;SDS011;39910;47.154;27.614;2022-07-29T08:16:40;7.00;;;6.70;;
34737;SDS011;39910;47.154;27.614;2022-07-29T08:19:06;7.35;;;7.05;;
34737;SDS011;39910;47.154;27.614;2022-07-29T08:21:32;7.10;;;6.80;;
34737;SDS011;39910;47.154;27.614;2022-07-29T08:23:57;7.25;;;6.95;;
34737;SDS011;39910;47.154;27.614;2022-07-29T08:26:41;6.90;;;6.60;;
34737;SDS011;39910;47.154;27.614;2022-07-29T08:29:08;7.30;;;7.00;;
34737;SDS011;39910;47.154;27.614;2022-07-29T08:31:34;7.32;;;7.03;;
34737;SDS011;39910;47.154;27.614;2022-07-29T08:34:01;7.40;;;7.10;;
34737;SDS011;39910;47.154;27.614;2022-07-29T08:36:27;7.70;;;7.40;;
34737;SDS011;39910;47.154;27.614;2022-07-29T08:38:53;7.28;;;6.97;;
34737;SDS011;39910;47.154;27.614;2022-07-29T08:41:19;7.25;;;6.95;;
34737;SDS011;39910;47.154;27.614;2022-07-29T08:43:45;7.38;;;7.07;;
34737;SDS011;39910;47.154;27.614;2022-07-29T08:46:11;7.20;;;6.90;;
34737;SDS011;39910;47.154;27.614;2022-07-29T08:48:37;7.30;;;7.00;;
34737;SDS011;39910;47.154;27.614;2022-07-29T08:51:04;7.28;;;6.97;;
34737;SDS011;39910;47.154;27.614;2022-07-29T08:53:32;7.28;;;6.97;;
34737;SDS011;39910;47.154;27.614;2022-07-29T08:55:59;7.03;;;6.72;;
34737;SDS011;39910;47.154;27.614;2022-07-29T08:58:25;7.25;;;6.95;;
34737;SDS011;39910;47.154;27.614;2022-07-29T09:00:53;7.30;;;7.00;;
34737;SDS011;39910;47.154;27.614;2022-07-29T09:03:20;7.18;;;6.88;;
34737;SDS011;39910;47.154;27.614;2022-07-29T09:05:49;7.25;;;6.95;;
34737;SDS011;39910;47.154;27.614;2022-07-29T09:08:15;7.30;;;7.00;;
34737;SDS011;39910;47.154;27.614;2022-07-29T09:10:42;7.47;;;7.18;;
34737;SDS011;39910;47.154;27.614;2022-07-29T09:13:08;7.30;;;7.00;;
34737;SDS011;39910;47.154;27.614;2022-07-29T09:15:35;7.30;;;7.00;;
34737;SDS011;39910;47.154;27.614;2022-07-29T09:18:00;7.30;;;7.00;;
34737;SDS011;39910;47.154;27.614;2022-07-29T09:20:27;7.28;;;6.97;;
34737;SDS011;39910;47.154;27.614;2022-07-29T09:23:13;7.20;;;6.90;;
34737;SDS011;39910;47.154;27.614;2022-07-29T09:25:39;7.28;;;6.97;;
34737;SDS011;39910;47.154;27.614;2022-07-29T09:28:15;7.35;;;7.05;;
34737;SDS011;39910;47.154;27.614;2022-07-29T09:30:57;7.10;;;6.80;;
34737;SDS011;39910;47.154;27.614;2022-07-29T09:33:31;7.40;;;7.10;;
34737;SDS011;39910;47.154;27.614;2022-07-29T09:36:08;7.22;;;6.93;;
34737;SDS011;39910;47.154;27.614;2022-07-29T09:38:34;7.10;;;6.80;;
34737;SDS011;39910;47.154;27.614;2022-07-29T09:41:03;7.10;;;6.80;;
34737;SDS011;39910;47.154;27.614;2022-07-29T09:43:30;7.10;;;6.80;;
34737;SDS011;39910;47.154;27.614;2022-07-29T09:45:55;7.28;;;6.97;;
34737;SDS011;39910;47.154;27.614;2022-07-29T09:48:39;7.30;;;7.00;;
34737;SDS011;39910;47.154;27.614;2022-07-29T09:51:05;7.28;;;6.97;;
34737;SDS011;39910;47.154;27.614;2022-07-29T09:53:42;7.25;;;6.95;;
34737;SDS011;39910;47.154;27.614;2022-07-29T09:56:07;7.10;;;6.80;;
34737;SDS011;39910;47.154;27.614;2022-07-29T09:58:35;7.38;;;7.07;;
34737;SDS011;39910;47.154;27.614;2022-07-29T10:01:01;7.45;;;7.15;;
34737;SDS011;39910;47.154;27.614;2022-07-29T10:03:27;7.20;;;6.90;;
34737;SDS011;39910;47.154;27.614;2022-07-29T10:08:30;6.93;;;6.63;;
34737;SDS011;39910;47.154;27.614;2022-07-29T10:11:08;7.20;;;6.90;;
34737;SDS011;39910;47.154;27.614;2022-07-29T10:13:35;7.10;;;6.80;;
34737;SDS011;39910;47.154;27.614;2022-07-29T10:16:01;7.50;;;7.20;;
34737;SDS011;39910;47.154;27.614;2022-07-29T10:18:27;7.20;;;6.90;;
34737;SDS011;39910;47.154;27.614;2022-07-29T10:20:53;7.25;;;6.95;;
34737;SDS011;39910;47.154;27.614;2022-07-29T10:23:19;7.28;;;6.97;;
34737;SDS011;39910;47.154;27.614;2022-07-29T10:25:45;7.68;;;7.38;;
34737;SDS011;39910;47.154;27.614;2022-07-29T10:28:11;6.90;;;6.60;;
34737;SDS011;39910;47.154;27.614;2022-07-29T10:30:37;7.10;;;6.80;;
34737;SDS011;39910;47.154;27.614;2022-07-29T10:37:12;7.32;;;7.03;;
34737;SDS011;39910;47.154;27.614;2022-07-29T10:42:18;7.47;;;7.18;;
34737;SDS011;39910;47.154;27.614;2022-07-29T10:44:44;7.07;;;6.78;;
34737;SDS011;39910;47.154;27.614;2022-07-29T10:47:20;7.30;;;7.00;;
34737;SDS011;39910;47.154;27.614;2022-07-29T10:50:02;7.00;;;6.70;;
34737;SDS011;39910;47.154;27.614;2022-07-29T10:55:36;7.20;;;6.90;;
34737;SDS011;39910;47.154;27.614;2022-07-29T11:00:37;7.00;;;6.70;;
34737;SDS011;39910;47.154;27.614;2022-07-29T11:03:03;7.30;;;7.00;;
34737;SDS011;39910;47.154;27.614;2022-07-29T11:05:29;7.43;;;7.13;;
34737;SDS011;39910;47.154;27.614;2022-07-29T11:10:38;7.38;;;7.07;;
34737;SDS011;39910;47.154;27.614;2022-07-29T11:13:04;7.25;;;6.95;;
34737;SDS011;39910;47.154;27.614;2022-07-29T11:15:32;7.22;;;6.93;;
34737;SDS011;39910;47.154;27.614;2022-07-29T11:18:19;7.22;;;6.93;;
34737;SDS011;39910;47.154;27.614;2022-07-29T11:20:46;7.22;;;6.93;;
34737;SDS011;39910;47.154;27.614;2022-07-29T11:23:33;7.35;;;7.05;;
34737;SDS011;39910;47.154;27.614;2022-07-29T11:31:19;7.10;;;6.80;;
34737;SDS011;39910;47.154;27.614;2022-07-29T11:39:34;7.35;;;7.05;;
34737;SDS011;39910;47.154;27.614;2022-07-29T11:45:01;7.53;;;7.23;;
34737;SDS011;39910;47.154;27.614;2022-07-29T11:47:27;7.07;;;6.78;;
34737;SDS011;39910;47.154;27.614;2022-07-29T11:49:54;7.30;;;7.00;;
34737;SDS011;39910;47.154;27.614;2022-07-29T11:52:22;7.35;;;7.05;;
34737;SDS011;39910;47.154;27.614;2022-07-29T11:54:48;7.15;;;6.85;;
34737;SDS011;39910;47.154;27.614;2022-07-29T11:57:18;7.40;;;7.10;;
34737;SDS011;39910;47.154;27.614;2022-07-29T11:59:45;7.20;;;6.90;;
34737;SDS011;39910;47.154;27.614;2022-07-29T12:02:12;6.80;;;6.50;;
34737;SDS011;39910;47.154;27.614;2022-07-29T12:05:11;7.05;;;6.75;;
34737;SDS011;39910;47.154;27.614;2022-07-29T12:07:31;6.93;;;6.63;;
34737;SDS011;39910;47.154;27.614;2022-07-29T12:09:57;7.20;;;6.90;;
34737;SDS011;39910;47.154;27.614;2022-07-29T12:12:24;7.00;;;6.70;;
34737;SDS011;39910;47.154;27.614;2022-07-29T12:14:49;6.90;;;6.60;;
34737;SDS011;39910;47.154;27.614;2022-07-29T12:17:28;6.93;;;6.63;;
34737;SDS011;39910;47.154;27.614;2022-07-29T12:19:59;6.97;;;6.68;;
34737;SDS011;39910;47.154;27.614;2022-07-29T12:24:54;7.07;;;6.78;;
34737;SDS011;39910;47.154;27.614;2022-07-29T12:27:21;7.28;;;6.97;;
34737;SDS011;39910;47.154;27.614;2022-07-29T12:29:57;7.50;;;7.20;;
34737;SDS011;39910;47.154;27.614;2022-07-29T12:32:35;7.10;;;6.80;;
34737;SDS011;39910;47.154;27.614;2022-07-29T12:35:03;7.18;;;6.88;;
34737;SDS011;39910;47.154;27.614;2022-07-29T12:37:32;7.00;;;6.70;;
34737;SDS011;39910;47.154;27.614;2022-07-29T12:39:58;7.40;;;7.10;;
34737;SDS011;39910;47.154;27.614;2022-07-29T12:42:24;7.65;;;7.35;;
34737;SDS011;39910;47.154;27.614;2022-07-29T12:44:50;7.47;;;7.18;;
34737;SDS011;39910;47.154;27.614;2022-07-29T12:47:16;7.30;;;7.00;;
34737;SDS011;39910;47.154;27.614;2022-07-29T12:49:43;7.10;;;6.80;;
34737;SDS011;39910;47.154;27.614;2022-07-29T12:55:00;7.00;;;6.70;;
34737;SDS011;39910;47.154;27.614;2022-07-29T12:57:26;7.40;;;7.10;;
34737;SDS011;39910;47.154;27.614;2022-07-29T12:59:59;7.32;;;7.03;;
34737;SDS011;39910;47.154;27.614;2022-07-29T13:02:34;7.05;;;6.75;;
34737;SDS011;39910;47.154;27.614;2022-07-29T13:04:59;7.07;;;6.78;;
34737;SDS011;39910;47.154;27.614;2022-07-29T13:07:27;7.20;;;6.90;;
34737;SDS011;39910;47.154;27.614;2022-07-29T13:10:08;7.32;;;7.03;;
34737;SDS011;39910;47.154;27.614;2022-07-29T13:15:34;7.22;;;6.93;;
34737;SDS011;39910;47.154;27.614;2022-07-29T13:18:01;7.60;;;7.30;;
34737;SDS011;39910;47.154;27.614;2022-07-29T13:20:28;6.93;;;6.63;;
34737;SDS011;39910;47.154;27.614;2022-07-29T13:22:55;7.40;;;7.10;;
34737;SDS011;39910;47.154;27.614;2022-07-29T13:25:29;7.50;;;7.20;;
34737;SDS011;39910;47.154;27.614;2022-07-29T13:27:56;7.03;;;6.72;;
34737;SDS011;39910;47.154;27.614;2022-07-29T13:30:23;7.30;;;7.00;;
34737;SDS011;39910;47.154;27.614;2022-07-29T13:32:50;7.35;;;7.05;;
34737;SDS011;39910;47.154;27.614;2022-07-29T13:35:16;7.05;;;6.75;;
34737;SDS011;39910;47.154;27.614;2022-07-29T13:37:43;7.00;;;6.70;;
34737;SDS011;39910;47.154;27.614;2022-07-29T13:40:09;7.20;;;6.90;;
34737;SDS011;39910;47.154;27.614;2022-07-29T13:42:35;7.20;;;6.90;;
34737;SDS011;39910;47.154;27.614;2022-07-29T13:45:01;7.43;;;7.13;;
34737;SDS011;39910;47.154;27.614;2022-07-29T13:47:28;7.30;;;7.00;;
34737;SDS011;39910;47.154;27.614;2022-07-29T13:49:55;7.47;;;7.18;;
34737;SDS011;39910;47.154;27.614;2022-07-29T13:52:20;7.25;;;6.95;;
34737;SDS011;39910;47.154;27.614;2022-07-29T13:54:46;7.50;;;7.20;;
34737;SDS011;39910;47.154;27.614;2022-07-29T13:57:12;7.40;;;7.10;;
34737;SDS011;39910;47.154;27.614;2022-07-29T13:59:41;7.05;;;6.75;;
34737;SDS011;39910;47.154;27.614;2022-07-29T14:02:07;7.50;;;7.20;;
34737;SDS011;39910;47.154;27.614;2022-07-29T14:04:33;7.18;;;6.88;;
34737;SDS011;39910;47.154;27.614;2022-07-29T14:06:59;7.22;;;6.93;;
34737;SDS011;39910;47.154;27.614;2022-07-29T14:09:25;7.20;;;6.90;;
34737;SDS011;39910;47.154;27.614;2022-07-29T14:11:50;7.22;;;6.93;;
34737;SDS011;39910;47.154;27.614;2022-07-29T14:14:17;7.15;;;6.85;;
34737;SDS011;39910;47.154;27.614;2022-07-29T14:16:43;7.10;;;6.80;;
34737;SDS011;39910;47.154;27.614;2022-07-29T14:19:09;7.20;;;6.90;;
34737;SDS011;39910;47.154;27.614;2022-07-29T14:21:36;7.03;;;6.72;;
34737;SDS011;39910;47.154;27.614;2022-07-29T14:24:02;7.60;;;7.30;;
34737;SDS011;39910;47.154;27.614;2022-07-29T14:26:28;6.90;;;6.60;;
34737;SDS011;39910;47.154;27.614;2022-07-29T14:28:53;6.85;;;6.55;;
34737;SDS011;39910;47.154;27.614;2022-07-29T14:31:19;7.28;;;6.97;;
34737;SDS011;39910;47.154;27.614;2022-07-29T14:33:44;7.30;;;7.00;;
34737;SDS011;39910;47.154;27.614;2022-07-29T14:36:10;7.10;;;6.80;;
34737;SDS011;39910;47.154;27.614;2022-07-29T14:38:36;7.30;;;7.00;;
34737;SDS011;39910;47.154;27.614;2022-07-29T14:41:02;7.25;;;6.95;;
34737;SDS011;39910;47.154;27.614;2022-07-29T14:43:28;7.35;;;7.05;;
34737;SDS011;39910;47.154;27.614;2022-07-29T14:45:54;7.35;;;7.05;;
34737;SDS011;39910;47.154;27.614;2022-07-29T14:48:19;7.05;;;6.75;;
34737;SDS011;39910;47.154;27.614;2022-07-29T14:50:45;7.18;;;6.88;;
34737;SDS011;39910;47.154;27.614;2022-07-29T14:53:10;7.65;;;7.35;;
34737;SDS011;39910;47.154;27.614;2022-07-29T14:55:38;7.32;;;7.03;;
34737;SDS011;39910;47.154;27.614;2022-07-29T14:58:05;7.07;;;6.78;;
34737;SDS011;39910;47.154;27.614;2022-07-29T15:00:31;7.30;;;7.00;;
34737;SDS011;39910;47.154;27.614;2022-07-29T15:02:59;7.30;;;7.00;;
34737;SDS011;39910;47.154;27.614;2022-07-29T15:05:26;7.10;;;6.80;;
34737;SDS011;39910;47.154;27.614;2022-07-29T15:07:52;7.20;;;6.90;;
34737;SDS011;39910;47.154;27.614;2022-07-29T15:10:17;7.47;;;7.18;;
34737;SDS011;39910;47.154;27.614;2022-07-29T15:12:43;7.30;;;7.00;;
34737;SDS011;39910;47.154;27.614;2022-07-29T15:15:08;7.30;;;7.00;;
34737;SDS011;39910;47.154;27.614;2022-07-29T15:17:34;6.88;;;6.57;;
34737;SDS011;39910;47.154;27.614;2022-07-29T15:19:59;7.25;;;6.95;;
34737;SDS011;39910;47.154;27.614;2022-07-29T15:22:25;7.07;;;6.78;;
34737;SDS011;39910;47.154;27.614;2022-07-29T15:24:51;7.10;;;6.80;;
34737;SDS011;39910;47.154;27.614;2022-07-29T15:27:17;7.35;;;7.05;;
34737;SDS011;39910;47.154;27.614;2022-07-29T15:29:43;7.00;;;6.70;;
34737;SDS011;39910;47.154;27.614;2022-07-29T15:32:09;6.88;;;6.57;;